createdAt,value
2017-10-11T00:00:26.053Z,85.00
2017-10-11T00:02:52.731Z,85.10
2017-10-11T00:05:19.427Z,85.20
2017-10-11T00:07:45.942Z,85.30
2017-10-11T00:10:12.801Z,85.30
2017-10-11T00:12:39.396Z,85.40
2017-10-11T00:15:06.956Z,85.70
2017-10-11T00:17:33.596Z,85.70
2017-10-11T00:20:00.265Z,86.00
2017-10-11T00:22:26.964Z,86.30
2017-10-11T00:24:53.678Z,86.60
2017-10-11T00:27:22.049Z,87.20
2017-10-11T00:29:48.730Z,87.20
2017-10-11T00:32:15.408Z,87.50
2017-10-11T00:34:41.998Z,87.70
2017-10-11T00:37:09.665Z,87.70
2017-10-11T00:39:37.903Z,87.80
2017-10-11T00:42:04.606Z,87.90
2017-10-11T00:44:31.254Z,87.90
2017-10-11T00:46:57.917Z,88.00
2017-10-11T00:49:24.449Z,87.90
2017-10-11T00:51:50.953Z,88.00
2017-10-11T00:54:17.513Z,87.90
2017-10-11T00:56:44.069Z,88.20
2017-10-11T00:59:10.980Z,88.30
2017-10-11T01:01:38.386Z,88.40
2017-10-11T01:04:05.069Z,88.60
2017-10-11T01:06:31.712Z,88.70
2017-10-11T01:08:58.553Z,89.00
2017-10-11T01:11:25.131Z,89.10
2017-10-11T01:13:51.905Z,89.50
2017-10-11T01:16:18.887Z,89.90
2017-10-11T01:18:46.312Z,90.10
2017-10-11T01:21:12.989Z,90.10
2017-10-11T01:23:39.788Z,90.10
2017-10-11T01:26:07.201Z,90.30
2017-10-11T01:28:33.752Z,90.30
2017-10-11T01:31:00.639Z,90.30
2017-10-11T01:33:27.184Z,90.30
2017-10-11T01:35:54.547Z,90.50
2017-10-11T01:38:21.148Z,90.50
2017-10-11T01:40:47.784Z,90.50
2017-10-11T01:43:15.330Z,90.60
2017-10-11T01:45:42.003Z,90.60
2017-10-11T01:48:08.709Z,90.70
2017-10-11T01:50:35.445Z,90.60
2017-10-11T01:53:02.925Z,90.70
2017-10-11T01:55:30.460Z,90.80
2017-10-11T01:57:57.046Z,90.70
2017-10-11T02:00:23.783Z,90.70
2017-10-11T02:02:50.437Z,90.70
2017-10-11T02:05:17.139Z,90.80
2017-10-11T02:07:44.421Z,90.80
2017-10-11T02:10:11.187Z,90.70
2017-10-11T02:12:37.916Z,90.80
2017-10-11T02:15:04.642Z,90.80
2017-10-11T02:17:31.285Z,90.90
2017-10-11T02:19:58.287Z,90.90
2017-10-11T02:22:25.066Z,91.00
2017-10-11T02:24:53.612Z,91.10
2017-10-11T02:27:20.177Z,91.20
2017-10-11T02:29:46.886Z,91.20
2017-10-11T02:32:13.639Z,91.30
2017-10-11T02:34:40.159Z,91.40
2017-10-11T02:37:06.898Z,91.40
2017-10-11T02:39:33.481Z,91.40
2017-10-11T02:42:00.146Z,91.30
2017-10-11T02:44:26.877Z,91.30
2017-10-11T02:46:53.770Z,91.30
2017-10-11T02:49:22.573Z,91.20
2017-10-11T02:51:50.057Z,91.20
2017-10-11T02:54:17.154Z,91.20
2017-10-11T02:56:43.989Z,91.00
2017-10-11T02:59:10.884Z,91.10
2017-10-11T03:01:38.367Z,91.00
2017-10-11T03:04:06.155Z,91.00
2017-10-11T03:06:33.033Z,91.00
2017-10-11T03:08:59.642Z,91.00
2017-10-11T03:11:26.309Z,91.00
2017-10-11T03:13:53.064Z,91.00
2017-10-11T03:16:19.767Z,91.00
2017-10-11T03:18:46.805Z,91.00
2017-10-11T03:21:14.808Z,91.00
2017-10-11T03:23:41.332Z,91.00
2017-10-11T03:26:07.953Z,91.00
2017-10-11T03:28:34.432Z,91.00
2017-10-11T03:31:01.111Z,90.90
2017-10-11T03:33:28.073Z,90.90
2017-10-11T03:35:54.712Z,90.80
2017-10-11T03:38:22.183Z,90.80
2017-10-11T03:40:48.881Z,90.80
2017-10-11T03:43:15.554Z,90.80
2017-10-11T03:45:42.321Z,90.60
2017-10-11T03:48:09.098Z,90.50
2017-10-11T03:50:35.980Z,90.50
2017-10-11T03:53:02.693Z,90.60
2017-10-11T03:55:30.218Z,90.60
2017-10-11T03:57:57.027Z,90.50
2017-10-11T04:00:23.552Z,90.60
2017-10-11T04:02:50.291Z,90.60
2017-10-11T04:05:17.308Z,90.70
2017-10-11T04:07:43.944Z,90.40
2017-10-11T04:10:10.530Z,90.40
2017-10-11T04:12:37.118Z,90.80
2017-10-11T04:15:03.960Z,90.50
2017-10-11T04:17:30.744Z,90.60
2017-10-11T04:19:57.855Z,90.40
2017-10-11T04:22:24.524Z,90.40
2017-10-11T04:24:52.166Z,90.30
2017-10-11T04:27:19.073Z,90.30
2017-10-11T04:29:52.570Z,90.40
2017-10-11T04:32:20.124Z,90.40
2017-10-11T04:34:46.892Z,90.40
2017-10-11T04:37:13.805Z,90.20
2017-10-11T04:39:40.598Z,90.20
2017-10-11T04:42:08.113Z,90.00
2017-10-11T04:44:34.832Z,90.00
2017-10-11T04:47:01.839Z,90.10
2017-10-11T04:49:28.471Z,90.10
2017-10-11T04:51:55.319Z,90.20
2017-10-11T04:54:22.815Z,90.20
2017-10-11T04:56:49.948Z,90.20
2017-10-11T04:59:16.673Z,90.30
2017-10-11T05:01:43.429Z,90.30
2017-10-11T05:04:10.168Z,90.30
2017-10-11T05:06:36.677Z,90.30
2017-10-11T05:09:06.081Z,90.30
2017-10-11T05:11:32.930Z,90.30
2017-10-11T05:13:59.513Z,90.20
2017-10-11T05:16:26.284Z,90.20
2017-10-11T05:18:53.127Z,90.20
2017-10-11T05:21:19.987Z,90.20
2017-10-11T05:23:46.699Z,90.20
2017-10-11T05:26:13.341Z,90.20
2017-10-11T05:28:40.041Z,90.30
2017-10-11T05:31:06.993Z,90.30
2017-10-11T05:33:34.640Z,90.20
2017-10-11T05:36:01.184Z,90.20
2017-10-11T05:38:27.796Z,90.10
2017-10-11T05:40:55.256Z,90.10
2017-10-11T05:43:21.825Z,90.10
2017-10-11T05:45:48.488Z,90.10
2017-10-11T05:48:15.478Z,90.00
2017-10-11T05:50:42.105Z,90.00
2017-10-11T05:53:08.916Z,90.00
2017-10-11T05:55:35.788Z,90.00
2017-10-11T05:58:02.420Z,90.00
2017-10-11T06:00:29.909Z,89.50
2017-10-11T06:02:58.456Z,89.50
2017-10-11T06:05:25.137Z,89.40
2017-10-11T06:07:51.873Z,89.40
2017-10-11T06:10:19.816Z,89.50
2017-10-11T06:12:47.003Z,89.50
2017-10-11T06:15:14.199Z,89.60
2017-10-11T06:17:43.597Z,89.50
2017-10-11T06:20:10.933Z,89.60
2017-10-11T06:22:37.975Z,89.50
2017-10-11T06:25:04.771Z,89.50
2017-10-11T06:27:31.481Z,89.30
2017-10-11T06:29:58.183Z,89.10
2017-10-11T06:32:25.038Z,89.10
2017-10-11T06:34:52.490Z,89.00
2017-10-11T06:37:19.765Z,89.00
2017-10-11T06:39:46.364Z,89.00
2017-10-11T06:42:13.034Z,88.90
2017-10-11T06:44:39.677Z,88.80
2017-10-11T06:47:06.333Z,88.80
2017-10-11T06:49:32.858Z,88.40
2017-10-11T06:51:59.832Z,88.50
2017-10-11T06:54:26.561Z,88.50
2017-10-11T06:56:53.237Z,88.60
2017-10-11T06:59:20.027Z,88.50
2017-10-11T07:01:46.766Z,88.50
2017-10-11T07:04:14.219Z,88.90
2017-10-11T07:06:42.049Z,88.80
2017-10-11T07:09:08.794Z,88.70
2017-10-11T07:11:35.644Z,88.80
2017-10-11T07:14:02.252Z,88.90
2017-10-11T07:16:28.919Z,88.90
2017-10-11T07:18:55.747Z,89.30
2017-10-11T07:21:22.597Z,89.50
2017-10-11T07:23:50.229Z,89.40
2017-10-11T07:26:18.004Z,89.40
2017-10-11T07:28:44.695Z,89.40
2017-10-11T07:31:11.233Z,89.40
2017-10-11T07:33:38.531Z,88.90
2017-10-11T07:36:05.289Z,88.80
2017-10-11T07:38:32.536Z,88.30
2017-10-11T07:40:59.392Z,88.20
2017-10-11T07:43:26.646Z,87.70
2017-10-11T07:45:53.999Z,87.20
2017-10-11T07:48:20.600Z,87.20
2017-10-11T07:50:47.359Z,86.90
2017-10-11T07:53:14.128Z,85.50
2017-10-11T07:55:40.974Z,85.10
2017-10-11T07:58:08.604Z,84.00
2017-10-11T08:00:35.326Z,83.40
2017-10-11T08:03:02.211Z,82.90
2017-10-11T08:05:30.160Z,83.80
2017-10-11T08:07:57.186Z,83.70
2017-10-11T08:10:23.955Z,84.40
2017-10-11T08:12:50.735Z,84.90
2017-10-11T08:15:17.490Z,85.20
2017-10-11T08:17:44.234Z,85.10
2017-10-11T08:20:11.603Z,85.30
2017-10-11T08:22:38.709Z,85.70
2017-10-11T08:25:05.522Z,85.40
2017-10-11T08:27:33.083Z,86.00
2017-10-11T08:29:59.633Z,85.80
2017-10-11T08:32:26.401Z,86.20
2017-10-11T08:34:53.817Z,87.20
2017-10-11T08:37:20.562Z,87.20
2017-10-11T08:39:48.234Z,87.20
2017-10-11T08:42:15.759Z,86.90
2017-10-11T08:44:42.434Z,87.10
2017-10-11T08:47:09.018Z,87.10
2017-10-11T08:49:35.868Z,87.40
2017-10-11T08:52:02.929Z,87.70
2017-10-11T08:54:29.808Z,88.00
2017-10-11T08:56:56.489Z,88.20
2017-10-11T08:59:23.351Z,88.00
2017-10-11T09:01:50.026Z,87.70
2017-10-11T09:04:17.548Z,88.10
2017-10-11T09:06:44.304Z,86.90
2017-10-11T09:09:11.025Z,87.30
2017-10-11T09:11:38.278Z,87.10
2017-10-11T09:14:05.972Z,87.00
2017-10-11T09:16:33.206Z,86.80
2017-10-11T09:19:00.163Z,86.40
2017-10-11T09:21:27.729Z,85.70
2017-10-11T09:23:55.494Z,84.80
2017-10-11T09:26:22.960Z,83.40
2017-10-11T09:28:50.069Z,83.40
2017-10-11T09:31:16.927Z,82.30
2017-10-11T09:33:44.072Z,82.40
2017-10-11T09:36:11.561Z,79.60
2017-10-11T09:38:39.318Z,80.20
2017-10-11T09:41:06.149Z,78.50
2017-10-11T09:43:32.804Z,79.20
2017-10-11T09:46:00.551Z,77.90
2017-10-11T09:48:27.331Z,78.10
2017-10-11T09:50:53.960Z,76.70
2017-10-11T09:53:21.414Z,74.90
2017-10-11T09:55:48.105Z,74.90
2017-10-11T09:58:15.438Z,74.90
2017-10-11T10:00:42.105Z,74.70
2017-10-11T10:03:09.040Z,73.50
2017-10-11T10:05:35.598Z,70.20
2017-10-11T10:08:02.513Z,70.00
2017-10-11T10:10:29.198Z,68.30
2017-10-11T10:12:55.968Z,65.90
2017-10-11T10:15:22.832Z,63.30
2017-10-11T10:17:49.436Z,62.40
2017-10-11T10:20:16.038Z,60.20
2017-10-11T10:22:42.790Z,60.70
2017-10-11T10:25:09.796Z,63.10
2017-10-11T10:27:37.553Z,66.10
2017-10-11T10:30:04.867Z,66.00
2017-10-11T10:32:32.190Z,68.40
2017-10-11T10:34:58.989Z,67.70
2017-10-11T10:37:25.618Z,67.90
2017-10-11T10:39:52.998Z,68.60
2017-10-11T10:42:19.879Z,68.50
2017-10-11T10:44:46.650Z,70.90
2017-10-11T10:47:13.455Z,71.90
2017-10-11T10:49:40.842Z,70.90
2017-10-11T10:52:07.693Z,70.90
2017-10-11T10:54:35.705Z,71.20
2017-10-11T10:57:02.441Z,72.50
2017-10-11T10:59:29.181Z,73.10
2017-10-11T11:01:55.977Z,73.70
2017-10-11T11:04:22.871Z,75.00
2017-10-11T11:06:49.814Z,75.70
2017-10-11T11:09:17.176Z,78.40
2017-10-11T11:11:43.783Z,77.60
2017-10-11T11:14:10.576Z,78.30
2017-10-11T11:16:37.277Z,80.90
2017-10-11T11:19:04.281Z,83.40
2017-10-11T11:21:30.978Z,85.40
2017-10-11T11:23:57.624Z,87.10
2017-10-11T11:26:24.311Z,87.70
2017-10-11T11:28:50.964Z,88.00
2017-10-11T11:31:18.112Z,88.20
2017-10-11T11:33:44.751Z,89.10
2017-10-11T11:36:11.466Z,90.00
2017-10-11T11:38:38.185Z,90.10
2017-10-11T11:41:05.455Z,90.20
2017-10-11T11:43:32.329Z,90.20
2017-10-11T11:46:01.636Z,90.30
2017-10-11T11:48:28.687Z,90.30
2017-10-11T11:50:56.125Z,90.40
2017-10-11T11:53:23.077Z,90.30
2017-10-11T11:55:50.521Z,90.30
2017-10-11T11:58:17.228Z,90.40
2017-10-11T12:00:44.449Z,90.50
2017-10-11T12:03:11.226Z,90.50
2017-10-11T12:05:37.898Z,90.60
2017-10-11T12:08:05.210Z,90.70
2017-10-11T12:10:31.808Z,90.70
2017-10-11T12:12:58.547Z,90.80
2017-10-11T12:15:25.214Z,90.50
2017-10-11T12:17:51.851Z,90.60
2017-10-11T12:20:18.455Z,90.50
2017-10-11T12:22:45.244Z,90.70
2017-10-11T12:25:12.036Z,90.60
2017-10-11T12:27:39.575Z,90.80
2017-10-11T12:30:07.146Z,90.60
2017-10-11T12:32:33.703Z,90.60
2017-10-11T12:35:00.334Z,90.60
2017-10-11T12:37:27.189Z,90.70
2017-10-11T12:39:54.194Z,90.70
2017-10-11T12:42:20.888Z,90.60
2017-10-11T12:44:47.438Z,91.00
2017-10-11T12:47:14.151Z,90.70
2017-10-11T12:49:40.846Z,90.70
2017-10-11T12:52:07.810Z,90.70
2017-10-11T12:54:34.342Z,90.80
2017-10-11T12:57:01.103Z,90.90
2017-10-11T12:59:28.580Z,90.90
2017-10-11T13:01:55.121Z,90.90
2017-10-11T13:04:21.858Z,90.80
2017-10-11T13:06:48.588Z,90.80
2017-10-11T13:09:15.379Z,90.80
2017-10-11T13:11:42.113Z,91.00
2017-10-11T13:14:08.861Z,90.90
2017-10-11T13:16:35.853Z,91.00
2017-10-11T13:19:02.620Z,91.10
2017-10-11T13:21:29.384Z,91.00
2017-10-11T13:23:56.993Z,91.10
2017-10-11T13:26:23.855Z,91.20
2017-10-11T13:28:50.711Z,91.20
2017-10-11T13:31:17.443Z,91.20
2017-10-11T13:33:44.129Z,91.10
2017-10-11T13:36:10.939Z,91.10
2017-10-11T13:38:37.478Z,91.00
2017-10-11T13:41:04.286Z,91.00
2017-10-11T13:43:30.943Z,91.00
2017-10-11T13:45:58.339Z,91.00
2017-10-11T13:48:25.813Z,90.90
2017-10-11T13:50:52.593Z,90.90
2017-10-11T13:53:19.247Z,90.80
2017-10-11T13:55:46.014Z,90.80
2017-10-11T13:58:12.869Z,90.80
2017-10-11T14:00:40.457Z,90.70
2017-10-11T14:03:07.083Z,90.70
2017-10-11T14:05:34.884Z,90.70
2017-10-11T14:08:01.425Z,90.70
2017-10-11T14:10:28.076Z,90.70
2017-10-11T14:12:54.878Z,90.80
2017-10-11T14:15:21.630Z,90.80
2017-10-11T14:17:48.693Z,90.70
2017-10-11T14:20:15.591Z,90.80
2017-10-11T14:22:43.366Z,90.60
2017-10-11T14:25:10.312Z,90.50
2017-10-11T14:27:37.825Z,90.30
2017-10-11T14:30:04.376Z,90.30
2017-10-11T14:32:31.863Z,90.30
2017-10-11T14:34:58.560Z,90.20
2017-10-11T14:37:25.859Z,90.00
2017-10-11T14:39:52.564Z,89.90
2017-10-11T14:42:19.662Z,90.10
2017-10-11T14:44:47.128Z,89.80
2017-10-11T14:47:13.885Z,89.70
2017-10-11T14:49:40.761Z,89.70
2017-10-11T14:52:07.552Z,89.80
2017-10-11T14:54:34.725Z,89.70
2017-10-11T14:57:01.484Z,89.30
2017-10-11T14:59:29.108Z,89.00
2017-10-11T15:01:55.943Z,89.00
2017-10-11T15:04:24.328Z,88.40
2017-10-11T15:06:51.242Z,88.40
2017-10-11T15:09:17.968Z,88.70
2017-10-11T15:11:45.123Z,88.20
2017-10-11T15:14:12.124Z,88.70
2017-10-11T15:16:39.792Z,88.70
2017-10-11T15:19:06.545Z,88.70
2017-10-11T15:21:33.968Z,88.30
2017-10-11T15:24:01.545Z,88.40
2017-10-11T15:26:29.121Z,88.40
2017-10-11T15:28:56.105Z,88.50
2017-10-11T15:31:23.112Z,88.40
2017-10-11T15:33:50.014Z,88.40
2017-10-11T15:36:16.714Z,88.30
2017-10-11T15:38:43.702Z,87.80
2017-10-11T15:41:10.357Z,87.30
2017-10-11T15:43:38.618Z,87.20
2017-10-11T15:46:08.404Z,87.10
2017-10-11T15:48:35.953Z,86.90
2017-10-11T15:51:02.484Z,87.40
2017-10-11T15:53:29.163Z,86.70
2017-10-11T15:55:57.241Z,86.60
2017-10-11T15:58:23.885Z,86.30
2017-10-11T16:00:50.611Z,86.20
2017-10-11T16:03:19.517Z,86.10
2017-10-11T16:05:46.550Z,86.40
2017-10-11T16:08:14.072Z,86.10
2017-10-11T16:10:40.914Z,86.00
2017-10-11T16:13:07.815Z,85.60
2017-10-11T16:15:35.757Z,85.60
2017-10-11T16:18:03.717Z,85.70
2017-10-11T16:20:30.333Z,85.20
2017-10-11T16:22:57.071Z,84.80
2017-10-11T16:25:24.169Z,85.00
2017-10-11T16:27:51.650Z,84.80
2017-10-11T16:30:19.141Z,84.70
2017-10-11T16:32:46.216Z,84.60
2017-10-11T16:35:13.113Z,84.50
2017-10-11T16:37:40.431Z,84.50
2017-10-11T16:40:07.271Z,84.40
2017-10-11T16:42:33.907Z,84.30
2017-10-11T16:45:01.500Z,83.90
2017-10-11T16:47:28.939Z,84.40
2017-10-11T16:49:56.420Z,84.00
2017-10-11T16:52:23.258Z,84.00
2017-10-11T16:54:50.289Z,83.90
2017-10-11T16:57:16.983Z,83.80
2017-10-11T16:59:43.954Z,83.90
2017-10-11T17:02:10.665Z,84.00
2017-10-11T17:04:37.218Z,83.80
2017-10-11T17:07:03.938Z,83.90
2017-10-11T17:09:31.319Z,83.90
2017-10-11T17:11:58.914Z,83.80
2017-10-11T17:14:25.569Z,83.80
2017-10-11T17:16:52.286Z,84.50
2017-10-11T17:19:19.863Z,83.50
2017-10-11T17:21:46.657Z,83.50
2017-10-11T17:24:13.300Z,83.80
2017-10-11T17:26:41.043Z,83.60
2017-10-11T17:29:11.870Z,83.70
2017-10-11T17:31:38.629Z,83.50
2017-10-11T17:34:05.317Z,83.40
2017-10-11T17:36:32.785Z,83.30
2017-10-11T17:38:59.524Z,83.30
2017-10-11T17:41:26.327Z,83.50
2017-10-11T17:43:53.874Z,83.10
2017-10-11T17:46:21.666Z,82.90
2017-10-11T17:48:48.419Z,83.40
2017-10-11T17:51:15.360Z,83.70
2017-10-11T17:53:42.291Z,83.70
2017-10-11T17:56:10.263Z,83.60
2017-10-11T17:58:37.636Z,83.90
2017-10-11T18:01:05.125Z,83.70
2017-10-11T18:03:32.398Z,83.70
2017-10-11T18:05:59.790Z,83.70
2017-10-11T18:08:27.364Z,83.60
2017-10-11T18:10:53.944Z,83.40
2017-10-11T18:13:20.499Z,83.30
2017-10-11T18:15:47.305Z,83.40
2017-10-11T18:18:14.076Z,83.40
2017-10-11T18:20:40.884Z,83.30
2017-10-11T18:23:07.864Z,83.40
2017-10-11T18:25:35.209Z,83.50
2017-10-11T18:28:02.232Z,83.30
2017-10-11T18:30:29.080Z,83.30
2017-10-11T18:32:57.143Z,83.30
2017-10-11T18:35:24.773Z,82.80
2017-10-11T18:37:53.192Z,82.40
2017-10-11T18:40:21.734Z,82.40
2017-10-11T18:42:49.398Z,82.00
2017-10-11T18:45:16.298Z,81.90
2017-10-11T18:47:42.963Z,82.00
2017-10-11T18:50:10.035Z,81.70
2017-10-11T18:52:36.804Z,81.90
2017-10-11T18:55:03.680Z,81.80
2017-10-11T18:57:30.383Z,81.60
2017-10-11T18:59:57.043Z,81.10
2017-10-11T19:02:23.716Z,81.10
2017-10-11T19:04:50.347Z,80.80
2017-10-11T19:07:17.165Z,80.90
2017-10-11T19:09:43.895Z,80.80
2017-10-11T19:12:11.942Z,80.70
2017-10-11T19:14:38.780Z,80.70
2017-10-11T19:17:05.359Z,80.90
2017-10-11T19:19:33.789Z,81.10
2017-10-11T19:22:00.357Z,80.30
2017-10-11T19:24:27.789Z,80.30
2017-10-11T19:26:54.719Z,80.30
2017-10-11T19:29:21.602Z,80.30
2017-10-11T19:31:48.960Z,80.40
2017-10-11T19:34:15.936Z,80.30
2017-10-11T19:36:42.780Z,80.40
2017-10-11T19:39:09.822Z,80.20
2017-10-11T19:41:36.760Z,80.00
2017-10-11T19:44:03.393Z,79.80
2017-10-11T19:46:30.049Z,79.90
2017-10-11T19:48:57.487Z,80.00
2017-10-11T19:51:24.275Z,79.90
2017-10-11T19:53:51.712Z,79.90
2017-10-11T19:56:18.543Z,79.80
2017-10-11T19:58:45.195Z,79.60
2017-10-11T20:01:11.859Z,79.70
2017-10-11T20:03:38.924Z,79.40
2017-10-11T20:06:07.757Z,79.50
2017-10-11T20:08:35.521Z,79.40
2017-10-11T20:11:03.961Z,79.20
2017-10-11T20:13:30.598Z,78.80
2017-10-11T20:15:58.852Z,78.60
2017-10-11T20:18:25.673Z,78.60
2017-10-11T20:20:53.817Z,78.60
2017-10-11T20:23:21.582Z,78.50
2017-10-11T20:25:48.317Z,78.40
2017-10-11T20:28:15.722Z,78.60
2017-10-11T20:30:43.036Z,78.40
2017-10-11T20:33:10.632Z,78.30
2017-10-11T20:35:38.153Z,78.10
2017-10-11T20:38:05.096Z,77.60
2017-10-11T20:40:31.864Z,77.40
2017-10-11T20:42:58.693Z,77.60
2017-10-11T20:45:25.318Z,77.40
2017-10-11T20:47:51.884Z,77.20
2017-10-11T20:50:19.190Z,77.00
2017-10-11T20:52:45.866Z,77.00
2017-10-11T20:55:12.609Z,77.00
2017-10-11T20:57:39.175Z,76.80
2017-10-11T21:00:06.032Z,77.00
2017-10-11T21:02:32.899Z,77.00
2017-10-11T21:04:59.894Z,76.90
2017-10-11T21:07:26.485Z,77.10
2017-10-11T21:09:53.914Z,77.10
2017-10-11T21:12:20.841Z,76.90
2017-10-11T21:14:47.460Z,76.90
2017-10-11T21:17:15.091Z,77.70
2017-10-11T21:19:42.641Z,77.00
2017-10-11T21:22:09.604Z,77.00
2017-10-11T21:24:36.789Z,77.10
2017-10-11T21:27:04.841Z,76.90
2017-10-11T21:29:31.417Z,76.30
2017-10-11T21:31:58.127Z,76.40
2017-10-11T21:34:24.880Z,76.50
2017-10-11T21:36:51.676Z,76.30
2017-10-11T21:39:18.342Z,75.90
2017-10-11T21:41:45.212Z,75.80
2017-10-11T21:44:11.928Z,75.90
2017-10-11T21:46:38.800Z,75.80
2017-10-11T21:49:05.616Z,75.70
2017-10-11T21:51:32.335Z,75.50
2017-10-11T21:53:59.088Z,75.00
2017-10-11T21:56:26.452Z,75.40
2017-10-11T21:58:53.436Z,75.10
2017-10-11T22:01:20.320Z,75.40
2017-10-11T22:03:46.904Z,75.40
2017-10-11T22:06:13.668Z,75.40
2017-10-11T22:08:41.363Z,75.60
2017-10-11T22:11:08.097Z,75.50
2017-10-11T22:13:34.900Z,75.60
2017-10-11T22:16:01.887Z,75.50
2017-10-11T22:18:29.631Z,75.40
2017-10-11T22:20:57.112Z,75.20
2017-10-11T22:23:23.886Z,75.00
2017-10-11T22:25:50.485Z,75.40
2017-10-11T22:28:17.101Z,75.10
2017-10-11T22:30:43.988Z,75.20
2017-10-11T22:33:10.881Z,75.00
2017-10-11T22:35:37.681Z,74.80
2017-10-11T22:38:04.313Z,74.40
2017-10-11T22:40:30.923Z,74.50
2017-10-11T22:42:58.098Z,74.30
2017-10-11T22:45:25.713Z,74.60
2017-10-11T22:47:52.375Z,74.30
2017-10-11T22:50:19.116Z,74.20
2017-10-11T22:52:45.804Z,74.40
2017-10-11T22:55:12.588Z,74.20
2017-10-11T22:57:39.261Z,73.90
2017-10-11T23:00:06.059Z,73.60
2017-10-11T23:02:33.937Z,73.30
2017-10-11T23:05:01.423Z,73.30
2017-10-11T23:07:28.138Z,73.30
2017-10-11T23:09:55.530Z,73.30
2017-10-11T23:12:22.304Z,73.50
2017-10-11T23:14:48.862Z,73.50
2017-10-11T23:17:16.439Z,72.50
2017-10-11T23:19:43.053Z,72.50
2017-10-11T23:22:09.896Z,72.20
2017-10-11T23:24:36.492Z,72.20
2017-10-11T23:27:03.397Z,72.10
2017-10-11T23:29:30.019Z,72.20
2017-10-11T23:31:56.926Z,72.20
2017-10-11T23:34:23.539Z,72.30
2017-10-11T23:36:51.357Z,72.40
2017-10-11T23:39:18.127Z,72.50
2017-10-11T23:41:44.986Z,72.70
2017-10-11T23:44:12.031Z,72.40
2017-10-11T23:46:39.061Z,72.30
2017-10-11T23:49:05.798Z,72.20
2017-10-11T23:51:32.552Z,72.10
2017-10-11T23:53:59.191Z,71.80
2017-10-11T23:56:25.932Z,72.00
2017-10-11T23:58:52.639Z,72.00
